METAR Data
IDs: Format: Raw Decoded Include TAF

Data at: 0822 UTC 20 Sep 2018

K2V6 200804Z AUTO 01011KT 10SM OVC006 15/08 A2982 RMK AO2
K2V6 200744Z AUTO 02009KT 10SM OVC006 15/08 A2984 RMK AO2
K2V6 200724Z AUTO 01005KT 10SM OVC006 15/08 A2986 RMK AO2
K2V6 200704Z AUTO 03005KT 10SM OVC006 15/08 A2986 RMK AO2
K2V6 200649Z AUTO 04005KT 10SM OVC006 15/08 A2986 RMK AO2
K2V6 200629Z AUTO 36007KT 10SM BKN006 BKN014 OVC095 15/08 A2986 RMK AO2 LTG DSNT N
K2V6 200609Z AUTO 34010G18KT 10SM -RA SCT009 BKN041 OVC110 15/08 A2984 RMK AO2 LTG DSNT NE
K2V6 200544Z AUTO 27015G19KT 10SM -RA SCT008 BKN070 OVC110 16/08 A2991 RMK AO2 LTG DSNT N AND NW
K2V6 200524Z AUTO 03003KT 10SM BKN070 OVC100 16/08 A2987 RMK AO2 LTG DSNT SW THRU N
K2V6 200504Z AUTO 03010KT 10SM -RA SCT024 SCT060 BKN080 16/08 A2985 RMK AO2 LTG DSNT NE
K2V6 200449Z AUTO 02019KT 4SM +RA SCT027 BKN055 OVC080 16/08 A2984 RMK AO2 LTG DSNT ALQS
K2V6 200429Z AUTO 36012G17KT 10SM -RA SCT019 BKN048 OVC060 16/07 A2986 RMK AO2 LTG DSNT N AND SW
K2V6 200409Z AUTO 01012KT 10SM OVC019 17/07 A2987 RMK AO2 LTG DSNT S AND SW
K2V6 200349Z AUTO 35016G21KT 10SM OVC015 17/06 A2988 RMK AO2 LTG DSNT N AND SW
K2V6 200324Z AUTO 33017G22KT 10SM OVC015 17/06 A2989 RMK AO2 LTG DSNT N
K2V6 200304Z AUTO 33016G22KT 10SM OVC017 18/06 A2991 RMK AO2
K2V6 200244Z AUTO 34016G21KT 10SM OVC017 18/07 A2991 RMK AO2
K2V6 200224Z AUTO 36016G21KT 10SM OVC021 18/06 A2989 RMK AO2 LTG DSNT SW
K2V6 200204Z AUTO 01015G20KT 10SM OVC021 19/06 A2989 RMK AO2 LTG DSNT E
K2V6 200144Z AUTO 01014G26KT 10SM BKN023 19/06 A2987 RMK AO2
K2V6 200124Z AUTO 36016G20KT 10SM CLR 20/06 A2985 RMK AO2
K2V6 200104Z AUTO 02014G23KT 10SM CLR 21/05 A2982 RMK AO2
K2V6 200044Z AUTO 01009KT 10SM CLR 22/05 A2981 RMK AO2 LTG DSNT SE
K2V6 200024Z AUTO 02009KT 10SM CLR 23/03 A2980 RMK AO2 LTG DSNT SE
K2V6 200004Z AUTO 02012KT 10SM CLR 23/02 A2980 RMK AO2
K2V6 192349Z AUTO 02010KT 10SM CLR 25/02 A2981 RMK AO2
K2V6 192329Z AUTO 05011KT 10SM CLR 26/00 A2981 RMK AO2
K2V6 192309Z AUTO 05007KT 10SM CLR 26/00 A2982 RMK AO2 LTG DSNT E
K2V6 192249Z AUTO 06010KT 10SM CLR 26/00 A2982 RMK AO2
K2V6 192229Z AUTO 04008KT 10SM CLR 26/00 A2982 RMK AO2
K2V6 192159Z AUTO 04009KT 10SM CLR 26/00 A2982 RMK AO2
K2V6 192149Z AUTO 04008G14KT 10SM CLR 26/01 A2983 RMK AO2
K2V6 192129Z AUTO 03010G15KT 10SM CLR 27/00 A2983 RMK AO2
K2V6 192109Z AUTO 04009G14KT 10SM CLR 27/00 A2984 RMK AO2
K2V6 192049Z AUTO 04010KT 10SM CLR 26/00 A2985 RMK AO2
K2V6 192029Z AUTO 03009KT 10SM CLR 26/00 A2986 RMK AO2
K2V6 192004Z AUTO 05013G17KT 10SM CLR 27/02 A2986 RMK AO2
K2V6 191944Z AUTO 02013G20KT 10SM CLR 26/03 A2987 RMK AO2
K2V6 191924Z AUTO 01011G16KT 10SM CLR 26/04 A2987 RMK AO2
K2V6 191904Z AUTO 01011KT 10SM CLR 24/06 A2987 RMK AO2
K2V6 191844Z AUTO 01010G15KT 10SM CLR 24/06 A2989 RMK AO2
K2V6 191824Z AUTO 01012G16KT 10SM CLR 25/15 A2989 RMK AO2
K2V6 191804Z AUTO 01012G16KT 10SM CLR 24/16 A2990 RMK AO2
K2V6 191744Z AUTO 03012G18KT 10SM SCT022 23/16 A2990 RMK AO2
K2V6 191724Z AUTO 01012G19KT 10SM SCT020 23/16 A2990 RMK AO2
K2V6 191704Z AUTO 36012G18KT 10SM BKN018 23/16 A2991 RMK AO2
K2V6 191649Z AUTO 02013G16KT 10SM OVC016 22/15 A2991 RMK AO2
K2V6 191624Z AUTO 01009G14KT 10SM OVC010 19/15 A2991 RMK AO2
K2V6 191604Z AUTO 01011G18KT 10SM SCT010 19/15 A2991 RMK AO2
K2V6 191544Z AUTO 02013G17KT 10SM CLR 19/14 A2990 RMK AO2
K2V6 191524Z AUTO 01012KT 10SM CLR 20/11 A2990 RMK AO2
K2V6 191504Z AUTO 35009KT 10SM CLR 20/11 A2989 RMK AO2
K2V6 191444Z AUTO 30007KT 10SM CLR 18/11 A2987 RMK AO2
K2V6 191424Z AUTO 31007KT 10SM CLR 17/11 A2987 RMK AO2
K2V6 191404Z AUTO 00000KT 10SM CLR 16/12 A2986 RMK AO2
K2V6 191349Z AUTO 00000KT 10SM CLR 16/12 A2986 RMK AO2
K2V6 191329Z AUTO 23005KT 10SM CLR 16/12 A2985 RMK AO2
K2V6 191309Z AUTO 24006KT 10SM CLR 15/12 A2985 RMK AO2
K2V6 191249Z AUTO 24007KT 10SM CLR 15/12 A2984 RMK AO2
K2V6 191224Z AUTO 21005KT 10SM CLR 13/11 A2984 RMK AO2
K2V6 191204Z AUTO 17004KT 10SM CLR 13/11 A2984 RMK AO2
K2V6 191144Z AUTO 20003KT 10SM CLR 13/12 A2985 RMK AO2
K2V6 191129Z AUTO 15004KT 10SM CLR 14/12 A2985 RMK AO2 LTG DSNT NE
K2V6 191109Z AUTO 18004KT 10SM CLR 15/12 A2985 RMK AO2
K2V6 191044Z AUTO 19003KT 10SM CLR 14/12 A2985 RMK AO2
K2V6 191024Z AUTO 24003KT 10SM CLR 15/12 A2985 RMK AO2
K2V6 191004Z AUTO 27003KT 10SM CLR 15/12 A2985 RMK AO2
K2V6 190944Z AUTO 26005KT 10SM CLR 16/12 A2985 RMK AO2
K2V6 190924Z AUTO 26004KT 10SM CLR 16/12 A2985 RMK AO2
K2V6 190904Z AUTO 00000KT 10SM CLR 16/12 A2985 RMK AO2
K2V6 190844Z AUTO 00000KT 10SM CLR 16/12 A2985 RMK AO2
K2V6 190824Z AUTO 19005KT 10SM CLR 17/12 A2985 RMK AO2
K2V6 190809Z AUTO 21005KT 10SM CLR 16/12 A2985 RMK AO2
K2V6 190749Z AUTO 20004KT 10SM CLR 17/12 A2985 RMK AO2
K2V6 190729Z AUTO 17003KT 10SM CLR 17/12 A2985 RMK AO2
K2V6 190709Z AUTO 18005KT 10SM CLR 19/12 A2985 RMK AO2
K2V6 190649Z AUTO 19006KT 10SM CLR 19/12 A2985 RMK AO2
K2V6 190629Z AUTO 17006KT 10SM CLR 18/12 A2986 RMK AO2
K2V6 190609Z AUTO 17005KT 10SM CLR 17/12 A2986 RMK AO2
K2V6 190549Z AUTO 14005KT 10SM CLR 17/12 A2987 RMK AO2
K2V6 190529Z AUTO 00000KT 10SM CLR 17/12 A2987 RMK AO2
K2V6 190504Z AUTO 00000KT 10SM CLR 17/13 A2987 RMK AO2
K2V6 190449Z AUTO 11003KT 10SM CLR 18/15 A2987 RMK AO2
K2V6 190429Z AUTO 09004KT 10SM CLR 18/15 A2987 RMK AO2
K2V6 190409Z AUTO 10003KT 10SM CLR 19/15 A2987 RMK AO2
K2V6 190344Z AUTO 11005KT 10SM CLR 20/15 A2988 RMK AO2
K2V6 190324Z AUTO 09008KT 10SM CLR 21/15 A2988 RMK AO2
K2V6 190304Z AUTO 09008KT 10SM CLR 21/15 A2987 RMK AO2
K2V6 190244Z AUTO 09008KT 10SM CLR 22/15 A2987 RMK AO2
K2V6 190224Z AUTO 09009KT 10SM CLR 22/14 A2987 RMK AO2
K2V6 190204Z AUTO 08006KT 10SM CLR 20/12 A2987 RMK AO2
K2V6 190149Z AUTO 08004KT 10SM CLR 21/14 A2987 RMK AO2
K2V6 190129Z AUTO 09006KT 10SM CLR 22/14 A2986 RMK AO2
K2V6 190104Z AUTO 10006KT 10SM CLR 23/00 A2987 RMK AO2
K2V6 190049Z AUTO 10005KT 10SM CLR 24/M01 A2987 RMK AO2
K2V6 190024Z AUTO 11006KT 10SM CLR 27/M01 A2987 RMK AO2
K2V6 190004Z AUTO 10006KT 10SM CLR 28/01 A2987 RMK AO2
K2V6 182344Z AUTO 09009KT 10SM CLR 30/00 A2987 RMK AO2
K2V6 182324Z AUTO 09011KT 10SM CLR 30/00 A2987 RMK AO2
K2V6 182304Z AUTO 10010KT 10SM CLR 31/00 A2988 RMK AO2
K2V6 182249Z AUTO 11008G15KT 10SM CLR 31/M01 A2988 RMK AO2
K2V6 182229Z AUTO 09009KT 10SM CLR 31/M02 A2989 RMK AO2
K2V6 182209Z AUTO 09009KT 10SM CLR 31/M01 A2990 RMK AO2
K2V6 182144Z AUTO 09011G14KT 10SM CLR 31/M01 A2991 RMK AO2
K2V6 182124Z AUTO 11006KT 10SM CLR 30/00 A2991 RMK AO2
K2V6 182054Z AUTO 12008KT 10SM CLR 30/00 A2993 RMK AO2
K2V6 182044Z AUTO 08013KT 10SM CLR 30/00 A2993 RMK AO2
K2V6 182024Z AUTO 10011G14KT 10SM CLR 30/00 A2993 RMK AO2